createdAt,value
2022-10-21T00:00:18.349Z,7.88
2022-10-21T00:02:45.737Z,7.70
2022-10-21T00:05:12.420Z,7.32
2022-10-21T00:07:39.067Z,7.53
2022-10-21T00:10:07.271Z,7.13
2022-10-21T00:12:34.415Z,8.30
2022-10-21T00:15:02.035Z,7.28
2022-10-21T00:17:28.722Z,7.03
2022-10-21T00:19:55.337Z,8.07
2022-10-21T00:22:21.970Z,7.53
2022-10-21T00:24:48.833Z,7.82
2022-10-21T00:27:15.458Z,7.35
2022-10-21T00:29:43.849Z,7.32
2022-10-21T00:32:10.518Z,7.45
2022-10-21T00:34:37.369Z,7.88
2022-10-21T00:37:04.045Z,7.55
2022-10-21T00:39:30.732Z,7.50
2022-10-21T00:41:57.375Z,7.97
2022-10-21T00:44:26.810Z,7.47
2022-10-21T00:47:04.353Z,7.93
2022-10-21T00:49:42.399Z,7.65
2022-10-21T00:52:13.704Z,7.18
2022-10-21T00:54:42.475Z,7.28
2022-10-21T00:57:10.138Z,6.13
2022-10-21T00:59:40.823Z,8.10
2022-10-21T01:02:08.191Z,7.97
2022-10-21T01:04:34.921Z,7.72
2022-10-21T01:07:02.893Z,7.18
2022-10-21T01:09:30.354Z,7.95
2022-10-21T01:11:57.483Z,7.10
2022-10-21T01:14:46.039Z,7.68
2022-10-21T01:17:45.799Z,7.32
2022-10-21T01:20:34.162Z,7.38
2022-10-21T01:23:31.281Z,7.53
2022-10-21T01:26:09.824Z,6.80
2022-10-21T01:28:54.569Z,7.25
2022-10-21T01:31:28.582Z,7.25
2022-10-21T01:34:25.790Z,7.05
2022-10-21T01:37:06.874Z,7.03
2022-10-21T01:39:43.944Z,7.00
2022-10-21T01:42:36.837Z,5.63
2022-10-21T01:45:15.521Z,6.40
2022-10-21T01:47:46.732Z,6.35
2022-10-21T01:50:23.877Z,6.40
2022-10-21T01:52:54.315Z,6.50
2022-10-21T01:55:24.601Z,6.57
2022-10-21T01:58:03.338Z,6.95
2022-10-21T02:00:30.745Z,6.50
2022-10-21T02:02:59.723Z,7.40
2022-10-21T02:05:30.438Z,5.68
2022-10-21T02:07:57.137Z,7.03
2022-10-21T02:10:26.714Z,6.95
2022-10-21T02:12:56.901Z,6.80
2022-10-21T02:15:25.437Z,6.70
2022-10-21T02:17:58.073Z,7.05
2022-10-21T02:20:27.380Z,6.85
2022-10-21T02:22:54.393Z,7.05
2022-10-21T02:25:24.060Z,6.38
2022-10-21T02:30:40.026Z,7.03
2022-10-21T02:33:18.551Z,6.80
2022-10-21T02:36:07.042Z,7.63
2022-10-21T02:38:40.915Z,6.38
2022-10-21T02:41:13.667Z,7.07
2022-10-21T02:43:47.195Z,5.60
2022-10-21T02:46:14.885Z,6.55
2022-10-21T02:48:46.139Z,6.82
2022-10-21T02:51:13.373Z,7.57
2022-10-21T02:53:40.527Z,6.47
2022-10-21T02:56:07.557Z,7.60
2022-10-21T02:58:34.543Z,7.60
2022-10-21T03:01:01.553Z,7.60
2022-10-21T03:03:29.794Z,7.80
2022-10-21T03:05:57.082Z,7.45
2022-10-21T03:08:23.877Z,6.95
2022-10-21T03:10:53.206Z,7.22
2022-10-21T03:13:21.264Z,7.10
2022-10-21T03:15:49.112Z,6.60
2022-10-21T03:18:16.365Z,7.43
2022-10-21T03:20:43.580Z,7.25
2022-10-21T03:23:10.228Z,7.07
2022-10-21T03:25:36.848Z,6.57
2022-10-21T03:28:03.539Z,6.90
2022-10-21T03:30:30.158Z,6.53
2022-10-21T03:32:56.756Z,7.05
2022-10-21T03:35:23.406Z,7.18
2022-10-21T03:37:50.046Z,7.28
2022-10-21T03:40:17.475Z,6.72
2022-10-21T03:42:44.049Z,6.50
2022-10-21T03:45:11.321Z,7.57
2022-10-21T03:47:38.096Z,7.07
2022-10-21T03:50:08.894Z,6.82
2022-10-21T03:52:39.407Z,6.88
2022-10-21T03:55:06.790Z,6.30
2022-10-21T03:57:33.407Z,6.70
2022-10-21T04:00:00.085Z,7.50
2022-10-21T04:02:26.797Z,6.68
2022-10-21T04:04:53.448Z,7.90
2022-10-21T04:07:20.064Z,7.18
2022-10-21T04:09:46.668Z,6.65
2022-10-21T04:12:13.317Z,6.88
2022-10-21T04:14:39.941Z,7.22
2022-10-21T04:17:08.110Z,7.65
2022-10-21T04:19:35.086Z,7.25
2022-10-21T04:22:01.707Z,6.57
2022-10-21T04:24:28.312Z,7.05
2022-10-21T04:26:54.968Z,7.32
2022-10-21T04:29:21.683Z,7.00
2022-10-21T04:31:48.314Z,7.07
2022-10-21T04:34:15.060Z,6.93
2022-10-21T04:36:41.631Z,6.57
2022-10-21T04:39:08.334Z,6.38
2022-10-21T04:41:35.049Z,6.28
2022-10-21T04:44:02.568Z,6.30
2022-10-21T04:46:29.168Z,6.97
2022-10-21T04:48:55.774Z,6.30
2022-10-21T04:51:22.454Z,6.88
2022-10-21T04:53:49.118Z,6.70
2022-10-21T04:56:15.752Z,6.70
2022-10-21T04:58:42.360Z,6.80
2022-10-21T05:01:09.113Z,6.50
2022-10-21T05:03:35.779Z,7.00
2022-10-21T05:06:02.439Z,7.13
2022-10-21T05:08:29.118Z,7.13
2022-10-21T05:11:00.984Z,6.40
2022-10-21T05:13:28.625Z,6.80
2022-10-21T05:16:03.554Z,6.47
2022-10-21T05:18:31.012Z,6.78
2022-10-21T05:20:58.181Z,7.10
2022-10-21T05:23:26.202Z,6.35
2022-10-21T05:25:52.884Z,6.40
2022-10-21T05:28:20.364Z,5.65
2022-10-21T05:30:47.161Z,5.85
2022-10-21T05:33:13.789Z,5.88
2022-10-21T05:35:40.481Z,6.40
2022-10-21T05:38:07.123Z,6.30
2022-10-21T05:40:34.322Z,5.95
2022-10-21T05:43:00.935Z,6.13
2022-10-21T05:45:27.801Z,6.18
2022-10-21T05:47:54.438Z,6.03
2022-10-21T05:50:21.470Z,5.80
2022-10-21T05:52:48.103Z,6.35
2022-10-21T05:55:14.704Z,6.05
2022-10-21T05:57:41.363Z,6.18
2022-10-21T06:00:09.422Z,5.82
2022-10-21T06:02:36.508Z,5.57
2022-10-21T06:05:03.719Z,6.13
2022-10-21T06:07:30.358Z,5.88
2022-10-21T06:09:56.952Z,5.57
2022-10-21T06:12:23.625Z,5.70
2022-10-21T06:14:50.267Z,5.45
2022-10-21T06:17:16.945Z,5.57
2022-10-21T06:19:46.004Z,5.47
2022-10-21T06:22:15.723Z,5.85
2022-10-21T06:24:42.321Z,5.63
2022-10-21T06:27:09.088Z,5.40
2022-10-21T06:29:35.687Z,4.93
2022-10-21T06:32:02.285Z,4.97
2022-10-21T06:34:28.922Z,5.68
2022-10-21T06:36:55.526Z,4.80
2022-10-21T06:39:22.139Z,5.57
2022-10-21T06:41:48.755Z,4.70
2022-10-21T06:44:34.065Z,5.50
2022-10-21T06:47:00.643Z,5.13
2022-10-21T06:49:27.263Z,4.47
2022-10-21T06:51:53.844Z,4.75
2022-10-21T06:54:20.536Z,4.78
2022-10-21T06:56:47.125Z,5.88
2022-10-21T06:59:14.505Z,4.93
2022-10-21T07:01:59.191Z,5.90
2022-10-21T07:04:26.682Z,4.68
2022-10-21T07:06:53.316Z,5.10
2022-10-21T07:09:20.210Z,5.15
2022-10-21T07:11:47.017Z,5.07
2022-10-21T07:14:13.730Z,5.18
2022-10-21T07:16:40.455Z,4.60
2022-10-21T07:19:07.440Z,5.18
2022-10-21T07:21:34.461Z,4.70
2022-10-21T07:24:01.509Z,5.03
2022-10-21T07:26:30.429Z,5.00
2022-10-21T07:28:59.486Z,4.88
2022-10-21T07:31:26.752Z,4.53
2022-10-21T07:33:53.752Z,4.30
2022-10-21T07:36:24.856Z,4.47
2022-10-21T07:38:53.385Z,4.53
2022-10-21T07:41:22.664Z,4.53
2022-10-21T07:43:50.353Z,4.93
2022-10-21T07:46:18.496Z,4.68
2022-10-21T07:48:45.112Z,4.63
2022-10-21T07:51:13.968Z,4.82
2022-10-21T07:53:41.127Z,4.80
2022-10-21T07:56:12.222Z,5.13
2022-10-21T07:58:39.121Z,4.63
2022-10-21T08:01:07.841Z,4.63
2022-10-21T08:03:35.141Z,4.50
2022-10-21T08:06:02.232Z,4.43
2022-10-21T08:08:29.189Z,4.18
2022-10-21T08:10:57.174Z,4.35
2022-10-21T08:13:24.861Z,4.22
2022-10-21T08:15:54.821Z,4.05
2022-10-21T08:18:21.818Z,4.57
2022-10-21T08:20:49.175Z,4.10
2022-10-21T08:23:20.495Z,3.88
2022-10-21T08:25:55.217Z,4.00
2022-10-21T08:28:23.428Z,3.42
2022-10-21T08:31:08.458Z,2.90
2022-10-21T08:33:35.647Z,3.85
2022-10-21T08:36:11.184Z,3.90
2022-10-21T08:38:37.820Z,3.78
2022-10-21T08:41:30.094Z,3.95
2022-10-21T08:44:04.480Z,4.03
2022-10-21T08:46:43.199Z,3.55
2022-10-21T08:49:25.055Z,3.65
2022-10-21T08:52:04.188Z,4.05
2022-10-21T08:54:56.859Z,3.78
2022-10-21T08:57:23.823Z,3.28
2022-10-21T08:59:50.722Z,3.50
2022-10-21T09:02:53.749Z,3.75
2022-10-21T09:05:44.891Z,3.35
2022-10-21T09:08:33.563Z,3.20
2022-10-21T09:11:05.499Z,3.40
2022-10-21T09:14:07.218Z,3.33
2022-10-21T09:16:58.108Z,3.30
2022-10-21T09:19:36.624Z,3.90
2022-10-21T09:22:37.942Z,3.40
2022-10-21T09:25:16.808Z,3.50
2022-10-21T09:27:55.441Z,3.50
2022-10-21T09:30:22.978Z,3.30
2022-10-21T09:32:51.417Z,3.67
2022-10-21T09:35:39.089Z,3.30
2022-10-21T09:38:29.014Z,3.30
2022-10-21T09:41:03.047Z,3.47
2022-10-21T09:43:30.379Z,3.17
2022-10-21T09:45:58.023Z,3.42
2022-10-21T09:49:25.848Z,3.17
2022-10-21T09:51:42.451Z,3.30
2022-10-21T09:54:10.452Z,3.53
2022-10-21T09:56:46.070Z,3.95
2022-10-21T09:59:16.188Z,3.78
2022-10-21T10:01:43.748Z,3.33
2022-10-21T10:04:11.983Z,3.83
2022-10-21T10:06:41.840Z,4.10
2022-10-21T10:09:17.504Z,3.50
2022-10-21T10:11:53.936Z,3.45
2022-10-21T10:14:25.652Z,3.50
2022-10-21T10:16:52.312Z,3.45
2022-10-21T10:19:24.942Z,3.50
2022-10-21T10:22:10.543Z,3.33
2022-10-21T10:24:40.438Z,2.97
2022-10-21T10:27:23.151Z,3.38
2022-10-21T10:29:54.463Z,2.95
2022-10-21T10:32:25.812Z,2.67
2022-10-21T10:34:56.573Z,3.63
2022-10-21T10:37:26.478Z,3.42
2022-10-21T10:39:58.890Z,3.58
2022-10-21T10:42:33.046Z,3.55
2022-10-21T10:45:20.226Z,3.85
2022-10-21T10:47:56.583Z,3.65
2022-10-21T10:50:38.464Z,3.38
2022-10-21T10:53:21.687Z,3.25
2022-10-21T10:56:11.172Z,3.30
2022-10-21T10:58:46.370Z,3.47
2022-10-21T11:01:22.807Z,3.25
2022-10-21T11:04:11.285Z,3.05
2022-10-21T11:06:46.563Z,3.28
2022-10-21T11:09:13.914Z,3.10
2022-10-21T11:11:44.819Z,3.20
2022-10-21T11:14:20.278Z,3.22
2022-10-21T11:17:00.712Z,3.05
2022-10-21T11:19:30.402Z,2.70
2022-10-21T11:22:28.335Z,3.05
2022-10-21T11:25:05.043Z,3.28
2022-10-21T11:27:53.303Z,4.07
2022-10-21T11:30:22.658Z,3.15
2022-10-21T11:33:03.024Z,3.55
2022-10-21T11:35:57.680Z,3.38
2022-10-21T11:38:42.765Z,3.28
2022-10-21T11:41:43.245Z,3.50
2022-10-21T11:44:46.310Z,3.13
2022-10-21T11:47:37.591Z,2.92
2022-10-21T11:50:39.156Z,3.45
2022-10-21T11:53:36.261Z,2.80
2022-10-21T11:56:14.974Z,2.45
2022-10-21T11:59:19.105Z,3.00
2022-10-21T12:01:57.213Z,3.70
2022-10-21T12:04:54.462Z,2.90
2022-10-21T12:07:29.847Z,3.05
2022-10-21T12:10:05.400Z,2.60
2022-10-21T12:12:37.015Z,2.25
2022-10-21T12:15:22.440Z,2.45
2022-10-21T12:17:50.222Z,3.10
2022-10-21T12:20:24.105Z,3.00
2022-10-21T12:22:59.260Z,3.47
2022-10-21T12:25:37.803Z,3.63
2022-10-21T12:28:08.095Z,3.05
2022-10-21T12:30:56.038Z,3.00
2022-10-21T12:33:38.663Z,3.03
2022-10-21T12:36:19.078Z,2.88
2022-10-21T12:38:51.816Z,2.50
2022-10-21T12:41:24.270Z,2.78
2022-10-21T12:44:00.554Z,2.85
2022-10-21T12:46:43.970Z,2.63
2022-10-21T12:49:10.531Z,2.83
2022-10-21T12:51:37.552Z,2.58
2022-10-21T12:54:08.729Z,2.58
2022-10-21T12:56:45.334Z,2.83
2022-10-21T12:59:27.307Z,2.67
2022-10-21T13:02:02.764Z,2.60
2022-10-21T13:04:32.488Z,2.53
2022-10-21T13:07:21.725Z,3.15
2022-10-21T13:09:51.374Z,2.97
2022-10-21T13:12:24.193Z,2.70
2022-10-21T13:15:09.714Z,2.75
2022-10-21T13:17:48.703Z,2.00
2022-10-21T13:20:15.261Z,2.38
2022-10-21T13:22:47.532Z,2.47
2022-10-21T13:25:27.636Z,2.22
2022-10-21T13:28:04.983Z,2.72
2022-10-21T13:30:40.472Z,3.08
2022-10-21T13:33:19.423Z,2.72
2022-10-21T13:35:52.298Z,2.13
2022-10-21T13:38:31.780Z,2.38
2022-10-21T13:41:18.156Z,2.35
2022-10-21T13:44:24.609Z,2.53
2022-10-21T13:46:51.231Z,2.17
2022-10-21T13:49:29.818Z,2.40
2022-10-21T13:51:57.003Z,2.35
2022-10-21T13:54:23.622Z,2.38
2022-10-21T13:56:50.536Z,2.20
2022-10-21T13:59:29.813Z,2.20
2022-10-21T14:01:57.693Z,2.55
2022-10-21T14:04:30.082Z,2.30
2022-10-21T14:07:01.262Z,2.13
2022-10-21T14:09:39.164Z,2.17
2022-10-21T14:12:08.881Z,2.17
2022-10-21T14:14:38.575Z,2.58
2022-10-21T14:17:08.909Z,2.25
2022-10-21T14:19:38.527Z,2.25
2022-10-21T14:24:42.976Z,2.03
2022-10-21T14:27:27.832Z,2.03
2022-10-21T14:29:56.162Z,1.77
2022-10-21T14:32:25.424Z,1.60
2022-10-21T14:35:10.312Z,1.95
2022-10-21T14:37:52.277Z,1.60
2022-10-21T14:40:31.955Z,1.77
2022-10-21T14:43:01.245Z,1.20
2022-10-21T14:45:53.872Z,1.25
2022-10-21T14:48:39.726Z,1.52
2022-10-21T14:51:16.524Z,1.40
2022-10-21T14:53:58.943Z,1.30
2022-10-21T14:56:40.338Z,1.40
2022-10-21T14:59:25.663Z,1.98
2022-10-21T15:01:53.180Z,1.30
2022-10-21T15:07:01.599Z,1.25
2022-10-21T15:09:28.334Z,1.63
2022-10-21T15:11:55.049Z,1.17
2022-10-21T15:14:28.659Z,1.50
2022-10-21T15:16:57.700Z,1.40
2022-10-21T15:19:29.931Z,1.40
2022-10-21T15:22:00.572Z,1.77
2022-10-21T15:24:30.039Z,2.50
2022-10-21T15:26:59.395Z,2.55
2022-10-21T15:29:42.200Z,1.80
2022-10-21T15:32:15.286Z,1.83
2022-10-21T15:34:42.218Z,1.48
2022-10-21T15:37:10.323Z,1.80
2022-10-21T15:39:36.932Z,1.58
2022-10-21T15:42:05.185Z,1.63
2022-10-21T15:44:33.816Z,1.48
2022-10-21T15:47:02.635Z,2.03
2022-10-21T15:49:36.295Z,2.00
2022-10-21T15:52:03.477Z,1.50
2022-10-21T15:54:30.337Z,2.03
2022-10-21T15:56:58.998Z,1.95
2022-10-21T15:59:28.742Z,2.50
2022-10-21T16:01:56.379Z,3.20
2022-10-21T16:04:23.684Z,3.97
2022-10-21T16:06:51.487Z,3.00
2022-10-21T16:09:27.266Z,5.40
2022-10-21T16:12:01.079Z,5.70
2022-10-21T16:14:30.436Z,6.45
2022-10-21T16:16:58.499Z,6.55
2022-10-21T16:19:25.187Z,5.93
2022-10-21T16:21:51.870Z,5.38
2022-10-21T16:24:18.681Z,3.88
2022-10-21T16:26:47.353Z,2.60
2022-10-21T16:29:19.978Z,2.60
2022-10-21T16:31:46.865Z,2.53
2022-10-21T16:34:13.871Z,2.00
2022-10-21T16:36:40.642Z,2.38
2022-10-21T16:39:19.161Z,2.47
2022-10-21T16:41:45.797Z,3.15
2022-10-21T16:44:12.358Z,2.78
2022-10-21T16:47:00.625Z,2.83
2022-10-21T16:49:28.197Z,2.13
2022-10-21T16:51:55.026Z,2.47
2022-10-21T16:54:22.865Z,2.05
2022-10-21T16:56:52.127Z,2.47
2022-10-21T16:59:21.512Z,2.58
2022-10-21T17:01:48.127Z,3.17
2022-10-21T17:04:14.980Z,2.65
2022-10-21T17:06:41.672Z,2.60
2022-10-21T17:09:09.047Z,2.50
2022-10-21T17:11:40.630Z,2.72
2022-10-21T17:14:11.881Z,2.63
2022-10-21T17:16:40.238Z,3.10
2022-10-21T17:19:07.970Z,4.20
2022-10-21T17:21:34.610Z,4.20
2022-10-21T17:24:03.397Z,4.30
2022-10-21T17:26:30.453Z,3.47
2022-10-21T17:28:59.147Z,3.10
2022-10-21T17:31:28.821Z,3.15
2022-10-21T17:33:58.175Z,2.75
2022-10-21T17:36:24.935Z,2.67
2022-10-21T17:38:51.626Z,2.50
2022-10-21T17:41:22.179Z,2.90
2022-10-21T17:43:49.064Z,3.20
2022-10-21T17:46:21.603Z,3.25
2022-10-21T17:48:52.829Z,3.33
2022-10-21T17:51:20.141Z,4.07
2022-10-21T17:53:50.021Z,3.35
2022-10-21T17:56:17.517Z,3.22
2022-10-21T17:58:44.718Z,3.17
2022-10-21T18:01:13.698Z,3.17
2022-10-21T18:03:40.451Z,3.58
2022-10-21T18:06:10.131Z,3.70
2022-10-21T18:08:37.416Z,3.00
2022-10-21T18:11:08.713Z,2.90
2022-10-21T18:13:35.960Z,3.45
2022-10-21T18:16:08.640Z,3.55
2022-10-21T18:18:36.259Z,3.22
2022-10-21T18:21:05.498Z,3.40
2022-10-21T18:23:32.452Z,3.58
2022-10-21T18:26:07.222Z,3.20
2022-10-21T18:28:34.696Z,3.38
2022-10-21T18:31:02.537Z,3.38
2022-10-21T18:33:29.509Z,2.90
2022-10-21T18:35:56.593Z,3.22
2022-10-21T18:38:23.368Z,2.70
2022-10-21T18:40:56.305Z,2.80
2022-10-21T18:43:28.790Z,3.20
2022-10-21T18:45:55.820Z,3.33
2022-10-21T18:48:22.407Z,3.97
2022-10-21T18:50:49.037Z,4.20
2022-10-21T18:53:15.657Z,3.35
2022-10-21T18:55:42.321Z,3.40
2022-10-21T18:58:09.000Z,3.10
2022-10-21T19:00:35.677Z,3.08
2022-10-21T19:03:02.276Z,2.38
2022-10-21T19:05:28.927Z,2.90
2022-10-21T19:07:55.581Z,2.38
2022-10-21T19:10:22.383Z,3.47
2022-10-21T19:12:49.119Z,3.30
2022-10-21T19:15:15.911Z,3.80
2022-10-21T19:17:43.534Z,3.40
2022-10-21T19:20:10.471Z,2.97
2022-10-21T19:22:37.075Z,3.63
2022-10-21T19:25:04.385Z,3.97
2022-10-21T19:27:31.088Z,3.28
2022-10-21T19:29:57.739Z,3.17
2022-10-21T19:32:24.337Z,2.83
2022-10-21T19:34:50.992Z,3.40
2022-10-21T19:37:17.718Z,2.85
2022-10-21T19:39:44.323Z,2.75
2022-10-21T19:42:11.034Z,2.92
2022-10-21T19:44:37.750Z,3.13
2022-10-21T19:47:04.376Z,3.20
2022-10-21T19:49:31.130Z,3.10
2022-10-21T19:51:57.856Z,3.00
2022-10-21T19:54:24.538Z,2.40
2022-10-21T19:56:52.054Z,2.97
2022-10-21T20:01:50.339Z,2.78
2022-10-21T20:04:16.963Z,2.90
2022-10-21T20:06:43.688Z,2.83
2022-10-21T20:09:13.990Z,3.72
2022-10-21T20:11:41.130Z,2.90
2022-10-21T20:14:08.088Z,3.40
2022-10-21T20:16:37.845Z,3.08
2022-10-21T20:19:06.648Z,3.03
2022-10-21T20:21:35.529Z,2.90
2022-10-21T20:24:02.717Z,3.00
2022-10-21T20:26:29.534Z,2.72
2022-10-21T20:28:56.471Z,2.90
2022-10-21T20:31:24.009Z,2.55
2022-10-21T20:33:51.679Z,2.60
2022-10-21T20:36:27.246Z,2.65
2022-10-21T20:38:55.845Z,3.17
2022-10-21T20:41:25.992Z,3.00
2022-10-21T20:43:53.813Z,2.47
2022-10-21T20:46:23.025Z,3.67
2022-10-21T20:48:50.842Z,4.90
2022-10-21T20:51:20.005Z,5.18
2022-10-21T20:53:51.759Z,4.22
2022-10-21T20:56:19.266Z,4.03
2022-10-21T20:58:45.954Z,3.95
2022-10-21T21:01:19.784Z,3.80
2022-10-21T21:03:49.504Z,3.88
2022-10-21T21:06:16.580Z,3.50
2022-10-21T21:08:48.734Z,3.45
2022-10-21T21:11:15.883Z,3.20
2022-10-21T21:13:44.518Z,3.10
2022-10-21T21:16:16.809Z,2.97
2022-10-21T21:18:48.951Z,3.03
2022-10-21T21:21:17.366Z,3.05
2022-10-21T21:23:45.406Z,2.40
2022-10-21T21:26:15.155Z,3.03
2022-10-21T21:28:42.182Z,3.20
2022-10-21T21:31:11.207Z,3.67
2022-10-21T21:33:38.565Z,2.67
2022-10-21T21:36:06.203Z,2.95
2022-10-21T21:38:34.052Z,3.08
2022-10-21T21:41:01.205Z,3.15
2022-10-21T21:43:29.645Z,3.05
2022-10-21T21:45:56.718Z,3.25
2022-10-21T21:48:23.601Z,3.17
2022-10-21T21:50:50.554Z,3.22
2022-10-21T21:53:19.800Z,3.65
2022-10-21T21:55:46.673Z,3.63
2022-10-21T21:58:13.311Z,3.17
2022-10-21T22:00:39.930Z,4.22
2022-10-21T22:03:06.839Z,5.25
2022-10-21T22:05:33.488Z,8.80
2022-10-21T22:08:01.214Z,13.88
2022-10-21T22:10:28.590Z,19.40
2022-10-21T22:12:56.407Z,19.65
2022-10-21T22:15:50.613Z,19.35
2022-10-21T22:18:11.241Z,12.35
2022-10-21T22:20:41.101Z,11.48
2022-10-21T22:23:07.749Z,9.73
2022-10-21T22:25:34.432Z,8.27
2022-10-21T22:28:01.061Z,7.57
2022-10-21T22:30:27.728Z,11.95
2022-10-21T22:32:54.398Z,14.85
2022-10-21T22:35:21.035Z,16.77
2022-10-21T22:37:47.685Z,12.93
2022-10-21T22:40:14.329Z,10.18
2022-10-21T22:42:41.047Z,8.27
2022-10-21T22:45:08.281Z,5.45
2022-10-21T22:47:34.997Z,3.97
2022-10-21T22:50:01.765Z,4.00
2022-10-21T22:52:28.382Z,3.42
2022-10-21T22:54:55.040Z,3.15
2022-10-21T22:57:21.640Z,3.47
2022-10-21T22:59:52.817Z,3.20
2022-10-21T23:02:20.029Z,2.80
2022-10-21T23:04:46.660Z,2.88
2022-10-21T23:07:13.752Z,3.33
2022-10-21T23:09:40.363Z,3.05
2022-10-21T23:12:06.986Z,2.97
2022-10-21T23:14:33.702Z,3.00
2022-10-21T23:17:00.269Z,2.75
2022-10-21T23:19:27.212Z,3.13
2022-10-21T23:21:53.970Z,2.58
2022-10-21T23:24:21.121Z,3.10
2022-10-21T23:26:47.749Z,2.90
2022-10-21T23:29:14.378Z,3.13
2022-10-21T23:31:41.035Z,2.85
2022-10-21T23:34:07.707Z,3.30
2022-10-21T23:36:35.405Z,2.75
2022-10-21T23:39:02.830Z,3.13
2022-10-21T23:41:29.445Z,2.67
2022-10-21T23:43:56.105Z,2.78
2022-10-21T23:46:23.952Z,2.75
2022-10-21T23:48:50.703Z,2.95
2022-10-21T23:51:17.362Z,2.80
2022-10-21T23:53:44.136Z,3.20
2022-10-21T23:56:10.784Z,3.13
2022-10-21T23:58:37.393Z,3.38
